Soaring Guidance
Issued by NWS Reno, NV

Home | Current Version | Previous Version | Text Only | Print | Product List | Glossary On
Versions: 1 2 3 4 5 6 7 8 9 10 11 12 13
000
UXUS97 KREV 011502
SRGREV

SOARING FORECAST
NATIONAL WEATHER SERVICE - RENO NV
700 AM PST SUN MAR 1 2015

THIS SOARING FORECAST IS FOR THE EASTERN SIERRA AND WESTERN NEVADA
WITH SPECIFIC INDICES FOR THE GREATER RENO AREA.

THIS FORECAST IS NOT UPDATED.

FOR CURRENT FLIGHT CONDITIONS...FORECASTS...AND ADVISORIES...ACCESS
YOUR LOCAL BRIEFING OUTLET OR FLIGHT SERVICE STATION.

*******************************************************************
LOCAL INDICES FOR RENO:                   TODAY     YESTERDAY
MAXIMUM TEMPERATURE AT RENO...(DEG F)...     46
TRIGGER TEMPERATURE...........(DEG F)...     39          40
   EXCEEDED YESTERDAY BY NA
MAXIMUM ALTITUDE..............(FT MSL)..  12800       11900
SOARING INDEX.................(FPM).....    654         567
FORECASTED K-INDEX.........VALID 18Z....     24          27
FORECASTED K-INDEX.........VALID 00Z....     25          26
FORECASTED LIFTED INDEX....VALID 18Z....      2           1
FORECASTED LIFTED INDEX....VALID 00Z....      3           1

AFTERNOON WINDS ALOFT FORECAST
MSL (FT) WIND/TEMP
9000  0711/-06
10000 0711/-08
12000 0811/-12
14000 0711/-17
16000 0712/-22
18000 0713/-27
24000 0541/-37
30000 0334/-46
34000 0214/-47
39000 3006/-49

SLIDE MOUNTAIN DATA:
 SLD HR 1350 M 16/14/1003/M  /SLIDE MTN UNOFFICIAL OBSERVATION

RENO TAF FORECAST:
KRNO 011139Z 0112/0212 VRB04KT P6SM OVC035
     FM011900 08007KT P6SM FEW035 BKN050
     FM020200 VRB03KT P6SM SCT050

CARSON CITY TAF FORECAST:
KCXP 011139Z 0112/0212 VRB04KT P6SM OVC030
     FM011900 06010KT P6SM BKN040
     FM020200 VRB03KT P6SM SCT050

OUTLOOK FOR THE RENO-CARSON CITY-MINDEN AREA:
.MONDAY...MOSTLY CLOUDY. SLIGHT CHANCE OF SNOW SHOWERS IN THE
MORNING...THEN SLIGHT CHANCE OF SHOWERS IN THE AFTERNOON. HIGHS
45 TO 50. LIGHT WINDS BECOMING NORTHWEST AROUND 10 MPH IN THE
AFTERNOON.

SUNRISE AND SUNSET
MARCH  1 2015.........SUNRISE   632 AM PST   SUNSET   551 PM PST
MARCH  2 2015.........SUNRISE   631 AM PST   SUNSET   552 PM PST



THIS PRODUCT IS ROUTINELY PREPARED BY 700 AM AND IS
DISTRIBUTED TO THE RENO FLIGHT SERVICE STATION AS WELL AS THE
NATIONAL WEATHER SERVICE WORLD WIDE WEB HOMEPAGE AT:
       HTTP://WWW.WEATHER.GOV/RENO





USA.gov is the U.S. government's official web portal to all federal, state and local government web resources and services.